Terminal Aerodrome Forecast
Issued by NWS

Home | Current Version | Previous Version | Text Only | Print | Product List | Glossary On
Versions: 1 2 3 4 5 6 7 8 9 10 11 12 13 14 15
000
FTUS43 KIWX 301700
TAFSBN
TAF
KSBN 301740Z 3018/3118 21016G22KT P6SM BKN024 BKN030
     FM301900 21015G23KT P6SM VCTS BKN040CB
      TEMPO 3022/3102 4SM -TSRA BKN030CB
     FM310300 20008KT 5SM BR SCT025 BKN080
     FM310800 21004KT 3SM BR BKN008
     FM311400 21007KT P6SM OVC020=

USA.gov is the U.S. government's official web portal to all federal, state and local government web resources and services.